Flight Track Log - Related Links

Times and Time Zones

All times are in EDT time to prevent confusion due to time zone crossing. See the VRT51 flight status page for this flight to view local times or setup timezone preferences in your user account.

Time Position Orientation Groundspeed Altitude Reporting Facility
EDT Latitude Longitude Course Direction KTS MPH feet Rate Location/Type
Thu 02:53:14 PM 30.1375 -97.5294 57° Northeast 291 335 6,200  Level Houston Center
Thu 02:54:16 PM 30.1781 -97.4439 61° Northeast 301 346 9,800 2,806 Climbing Houston Center
Thu 02:55:18 PM 30.2231 -97.3525 60° Northeast 323 372 12,000 1,113 Climbing Houston Center
Thu 02:56:20 PM 30.2747 -97.2425 61° Northeast 382 440 12,100 1,392 Climbing Houston Center
Thu 02:57:00 PM 30.5608 -97.0167 57° Northeast  Level Estimated
Thu 02:57:23 PM 30.3267 -97.1356 61° Northeast 381 438 14,900  Level Houston Center
Thu 02:58:00 PM 30.6216 -96.9074 57° Northeast  Level Estimated
Thu 02:58:25 PM 30.3525 -97.0100 77° East 411 473 17,900  Level Houston Center
Thu 02:59:27 PM 30.3394 -96.8617 96° East 401 461 21,500 2,661 Climbing Houston Center
Thu 03:00:29 PM 30.3314 -96.7297 94° East 411 473 23,400 1,548 Climbing Houston Center
Thu 03:01:31 PM 30.3225 -96.5858 94° East 441 507 24,700 1,597 Climbing Houston Center
Thu 03:02:33 PM 30.3136 -96.4389 94° East 453 521 26,700 1,935 Climbing Houston Center
Thu 03:03:35 PM 30.3042 -96.2931 94° East 452 520 28,700 1,935 Climbing Houston Center
Thu 03:04:37 PM 30.2953 -96.1508 94° East 444 511 30,700 1,920 Climbing Houston Center
Thu 03:05:40 PM 30.3258 -96.0017 77° East 432 497 32,700 1,440 Climbing Houston Center
Thu 03:06:42 PM 30.3978 -95.8847 54° Northeast 446 513 33,700 968 Climbing Houston Center
Thu 03:07:44 PM 30.4717 -95.7656 54° Northeast 457 526 34,700 968 Climbing Houston Center
Thu 03:08:46 PM 30.5458 -95.6469 54° Northeast 461 531 35,700 968 Climbing Houston Center
Thu 03:09:48 PM 30.6203 -95.5269 54° Northeast 464 534 36,700 1,065 Climbing Houston Center
Thu 03:10:50 PM 30.7028 -95.3925 54° Northeast 459 528 37,900 1,065 Climbing Houston Center
Thu 03:11:52 PM 30.7767 -95.2731 54° Northeast 451 519 38,900 960 Climbing Houston Center
Thu 03:12:55 PM 30.8483 -95.1569 54° Northeast 446 513 39,900 1,008 Climbing Houston Center
Thu 03:13:57 PM 30.9325 -95.0178 55° Northeast 438 504 41,000 532 Climbing Houston Center
Thu 03:14:59 PM 31.0028 -94.9011 55° Northeast 452 520 41,000  Level Houston Center
Thu 03:16:01 PM 31.0744 -94.7803 55° Northeast 473 544 41,000  Level Houston Center
Thu 03:17:03 PM 31.1475 -94.6547 56° Northeast 527 606 41,000  Level Houston Center
Thu 03:18:05 PM 31.3081 -94.5739 23° Northeast 557 641 41,000  Level Houston Center
Thu 03:19:07 PM 31.3125 -94.3911 88° East 475 547 41,000  Level Houston Center
Thu 03:20:09 PM 31.3861 -94.2683 55° Northeast 466 536 41,000  Level Houston Center
Thu 03:21:12 PM 31.4600 -94.1483 54° Northeast 459 528 41,000  Level Houston Center
Thu 03:22:14 PM 31.5333 -94.0253 55° Northeast 459 528 41,000  Level Houston Center
Thu 03:23:16 PM 31.6203 -93.8803 55° Northeast 455 524 41,000  Level Houston Center
Thu 03:24:18 PM 31.6919 -93.7581 55° Northeast 455 524 41,000  Level Houston Center
Thu 03:25:20 PM 31.7639 -93.6356 55° Northeast 455 524 41,000  Level Houston Center
Thu 03:26:22 PM 31.8331 -93.5192 55° Northeast 460 529 41,000  Level Houston Center
Thu 03:27:24 PM 31.9061 -93.3956 55° Northeast 459 528 41,000  Level Houston Center
Thu 03:29:45 PM 32.0850 -93.0956 55° Northeast 456 525 41,000  Level Fort Worth Center
Thu 03:30:45 PM 32.1558 -92.9719 56° Northeast 456 525 41,000  Level Fort Worth Center
Thu 03:31:45 PM 32.2286 -92.8458 56° Northeast 456 525 41,000  Level Fort Worth Center
Thu 03:32:45 PM 32.2992 -92.7217 56° Northeast 456 525 41,000  Level Fort Worth Center
Thu 03:33:45 PM 32.3717 -92.5950 56° Northeast 456 525 41,000  Level Fort Worth Center
Thu 03:34:45 PM 32.4458 -92.4631 56° Northeast 464 534 41,000  Level Fort Worth Center
Thu 03:35:45 PM 32.5161 -92.3436 55° Northeast 457 526 41,000  Level Fort Worth Center
Thu 03:36:45 PM 32.5864 -92.2189 56° Northeast 457 526 41,000  Level Fort Worth Center
Thu 03:38:55 PM 32.7392 -91.9453 56° Northeast 457 526 41,000  Level Memphis Center
Thu 03:39:55 PM 32.8097 -91.8156 57° Northeast 457 526 41,000  Level Memphis Center
Thu 03:40:55 PM 32.8819 -91.6881 56° Northeast 462 532 41,000  Level Memphis Center
Thu 03:41:55 PM 32.9522 -91.5653 56° Northeast 457 526 41,000  Level Memphis Center
Thu 03:42:55 PM 33.0242 -91.4375 56° Northeast 457 526 41,000  Level Memphis Center
Thu 03:43:55 PM 33.0922 -91.3094 58° Northeast 457 526 41,000  Level Memphis Center
Thu 03:44:55 PM 33.1639 -91.1836 56° Northeast 457 526 41,000  Level Memphis Center
Thu 03:45:55 PM 33.2317 -91.0600 57° Northeast 457 526 41,000  Level Memphis Center
Thu 03:46:55 PM 33.3011 -90.9339 57° Northeast 457 526 41,000  Level Memphis Center
Thu 03:47:55 PM 33.3706 -90.8125 56° Northeast 457 526 41,000  Level Memphis Center
Thu 03:48:55 PM 33.4461 -90.6733 57° Northeast 457 526 41,000  Level Memphis Center
Thu 03:49:55 PM 33.5150 -90.5467 57° Northeast 457 526 41,000  Level Memphis Center
Thu 03:50:55 PM 33.5819 -90.4219 57° Northeast 452 520 41,000  Level Memphis Center
Thu 03:51:55 PM 33.6489 -90.2972 57° Northeast 452 520 41,000  Level Memphis Center
Thu 03:52:55 PM 33.7197 -90.1725 56° Northeast 452 520 41,000  Level Memphis Center
Thu 03:53:55 PM 33.7842 -90.0472 58° Northeast 446 513 41,000  Level Memphis Center
Thu 03:54:55 PM 33.8422 -89.9169 62° Northeast 441 507 41,000  Level Memphis Center
Thu 03:55:55 PM 33.8853 -89.7742 70° East 441 507 41,000  Level Memphis Center
Thu 03:56:55 PM 33.9222 -89.6514 70° East 441 507 41,000  Level Memphis Center
Thu 03:57:55 PM 33.9653 -89.5156 69° East 441 507 41,000  Level Memphis Center
Thu 03:58:55 PM 34.0081 -89.3775 69° East 441 507 41,000  Level Memphis Center
Thu 03:59:55 PM 34.0486 -89.2392 70° East 434 499 41,000  Level Memphis Center
Thu 04:00:55 PM 34.0911 -89.1006 70° East 429 494 41,000  Level Memphis Center
Thu 04:01:55 PM 34.1314 -88.9619 71° East 429 494 41,000  Level Memphis Center
Thu 04:02:55 PM 34.1925 -88.8328 60° Northeast 434 499 41,000  Level Memphis Center
Thu 04:03:55 PM 34.2642 -88.7236 52° Northeast 428 493 41,000  Level Memphis Center
Thu 04:04:55 PM 34.3375 -88.6014 54° Northeast 433 498 41,000  Level Memphis Center
Thu 04:05:55 PM 34.4089 -88.4792 55° Northeast 433 498 41,000  Level Memphis Center
Thu 04:06:55 PM 34.4842 -88.3567 53° Northeast 438 504 41,000  Level Memphis Center
Thu 04:07:55 PM 34.5700 -88.2511 45° Northeast 443 510 41,000  Level Memphis Center
Thu 04:08:55 PM 34.6700 -88.1247 46° Northeast 453 521 41,000  Level Memphis Center
Thu 04:09:55 PM 34.7619 -88.0214 43° Northeast 461 531 41,000  Level Memphis Center
Thu 04:10:55 PM 34.8581 -87.9200 41° Northeast 455 524 41,000  Level Memphis Center
Thu 04:11:55 PM 34.9378 -87.8342 41° Northeast 449 517 41,000 -250 Level Memphis Center
Thu 04:12:55 PM 35.0419 -87.7294 39° Northeast 442 509 40,500 -1,150 Descending Memphis Center
Thu 04:13:55 PM 35.1378 -87.6250 42° Northeast 447 514 38,700 -2,050 Descending Memphis Center
Thu 04:14:55 PM 35.2336 -87.5228 41° Northeast 452 520 36,400 -2,350 Descending Memphis Center
Thu 04:15:55 PM 35.3292 -87.4203 41° Northeast 452 520 34,000 -1,200 Descending Memphis Center
Thu 04:16:55 PM 35.4186 -87.3228 42° Northeast 439 505 34,000 -500 Level Memphis Center
Thu 04:17:55 PM 35.5014 -87.2125 47° Northeast 427 491 33,000 -1,700 Descending Memphis Center
Thu 04:18:55 PM 35.5497 -87.0678 68° East 439 505 30,600 -2,400 Descending Memphis Center
Thu 04:19:55 PM 35.5981 -86.9281 67° East 439 505 28,200 -2,250 Descending Memphis Center
Thu 04:20:55 PM 35.6383 -86.8039 68° East 446 513 26,100 -2,250 Descending Memphis Center
Thu 04:21:55 PM 35.6844 -86.6639 68° East 436 502 23,700 -2,500 Descending Memphis Center
Thu 04:22:55 PM 35.7283 -86.5339 67° East 422 486 21,100 -2,800 Descending Memphis Center
Thu 04:23:55 PM 35.7725 -86.4067 67° East 410 472 18,100 -2,950 Descending Memphis Center
Thu 04:24:55 PM 35.8083 -86.2922 69° East 374 430 15,200 -2,950 Descending Memphis Center
Thu 04:25:55 PM 35.8403 -86.1831 70° East 345 397 12,200 -3,000 Descending Memphis Center
Thu 04:26:55 PM 35.8469 -86.0778 86° East 320 368 9,200 -2,600 Descending Memphis Center
Thu 04:27:55 PM 35.8556 -85.9647 85° East 310 357 7,000 -2,100 Descending Memphis Center
Thu 04:28:55 PM 35.8603 -85.8644 87° East 297 342 5,000 -1,500 Descending Memphis Center
Thu 04:29:55 PM 35.8653 -85.7744 86° East 292 336 4,000 -500 Descending Memphis Center
Thu 04:30:55 PM 35.8725 -85.6869 84° East 280 322 4,000 50 Level Memphis Center
Thu 04:31:55 PM 35.9208 -85.6433 36° Northeast 217 250 4,100 100 Climbing Memphis Center

Login

Don't have an account? Register now (free) for customized features, flight alerts, and more!